Portada
METAR-TAF:

METAR-TAF

Aeroports :

Sotxi, Rússia

latitud: 43-26N, longitud: 039-54E, altitud: 16 m

Observació

L'informe es va fer fa 23 minuts, a les 15:30 UTC
Vent 6 kt del Nord-Est
Temperatura 7°C
Humitat 76%
Pressió 1017 hPa
Visibilitat 10 km o més

METAR: URSS 101530Z 05003MPS 9999 NSC 07/03 Q1017 R02/010070 R06/010070 NOSIG RMK R06/00000MPS QFE761

Hora: 19:53 (15:53 UTC)

Pronòstic

L'informe es va fer fa 1 hora i 57 minuts, a les 13:56 UTC
Pronòstic vàlid del 10 a les 15 UTC al 11 a les 15 UTC
Vent 12 kt del Nord-Est
Visibilitat 10 km o més
Evolucionant progressivament
l' 11 a les 09 UTC al 11 a les 10 UTC
Vent 6 kt del Oest amb ràfegues de 16 kt

TAF: URSS 101356Z 1015/1115 05006MPS 9999 NSC BECMG 1109/1110 26003G08MPS

Observacions i pronòstics meteorològics de més de 4000 aeroports (METAR i TAF).

Les estacions disponibles són els punts grocs i vermells al mapa.

Posi el ratolí al punt desitjat per veure el nom de l'estació.

Feu clic per veure les observacions i els pronòstics meteorològics.

Per canviar el mapa: feu clic els botons verds amb una creu de color negre per apropar; al botó verd amb un guió per allunyar la imatge; o en les fletxes verdes per a mapes adjacents.


METAR-TAF: